createdAt,value
2022-09-27T00:00:16.913Z,27.3
2022-09-27T00:05:18.751Z,28.1
2022-09-27T00:10:20.641Z,38.5
2022-09-27T00:15:21.015Z,25.4
2022-09-27T00:20:22.989Z,26.9
2022-09-27T00:25:24.950Z,27.5
2022-09-27T00:30:26.935Z,27.4
2022-09-27T00:35:28.821Z,26.5
2022-09-27T00:40:30.825Z,26.8
2022-09-27T00:45:32.997Z,28.3
2022-09-27T00:50:34.919Z,27.4
2022-09-27T00:55:36.895Z,27.3
2022-09-27T01:00:39.205Z,24.9
2022-09-27T01:05:41.212Z,25.9
2022-09-27T01:10:43.095Z,24.9
2022-09-27T01:15:45.125Z,22
2022-09-27T01:20:47.237Z,22.6
2022-09-27T01:25:49.221Z,23.7
2022-09-27T01:30:51.291Z,22.6
2022-09-27T01:35:53.478Z,22.3
2022-09-27T01:40:55.729Z,23.4
2022-09-27T01:45:57.959Z,23.9
2022-09-27T01:51:00.363Z,23.8
2022-09-27T01:56:00.970Z,24.5
2022-09-27T02:01:03.023Z,24.8
2022-09-27T02:06:05.366Z,24.5
2022-09-27T02:11:07.390Z,21.2
2022-09-27T02:16:09.417Z,21.4
2022-09-27T02:21:12.862Z,22.5
2022-09-27T02:26:15.035Z,18.7
2022-09-27T02:31:17.098Z,21
2022-09-27T02:36:19.325Z,20.9
2022-09-27T02:41:21.309Z,20.5
2022-09-27T02:46:23.636Z,21.8
2022-09-27T02:51:26.199Z,20
2022-09-27T02:56:28.090Z,19.8
2022-09-27T03:01:30.400Z,19.8
2022-09-27T03:06:32.523Z,20.9
2022-09-27T03:11:34.452Z,19.9
2022-09-27T03:16:36.689Z,21.5
2022-09-27T03:21:38.983Z,21.7
2022-09-27T03:26:41.165Z,20.2
2022-09-27T03:31:43.110Z,20.9
2022-09-27T03:36:45.188Z,21
2022-09-27T03:41:47.104Z,21.5
2022-09-27T03:46:49.073Z,20.3
2022-09-27T03:51:51.023Z,20.4
2022-09-27T03:56:52.898Z,19.9
2022-09-27T04:01:55.120Z,19.2
2022-09-27T04:06:57.260Z,20.6
2022-09-27T04:11:59.181Z,20.2
2022-09-27T04:17:01.449Z,22.3
2022-09-27T04:22:03.857Z,19.7
2022-09-27T04:27:05.902Z,19.8
2022-09-27T04:32:07.830Z,14.8
2022-09-27T04:37:09.714Z,19.2
2022-09-27T04:42:10.028Z,12
2022-09-27T04:47:12.190Z,13.9
2022-09-27T04:52:14.402Z,17.4
2022-09-27T04:57:16.515Z,17.5
2022-09-27T05:02:18.744Z,17
2022-09-27T05:07:20.750Z,17.5
2022-09-27T05:12:22.760Z,19.4
2022-09-27T05:17:24.592Z,28
2022-09-27T05:22:26.492Z,30.6
2022-09-27T05:27:28.690Z,17.5
2022-09-27T05:32:30.743Z,20.1
2022-09-27T05:37:32.650Z,20
2022-09-27T05:42:35.113Z,18.6
2022-09-27T05:47:37.022Z,17.7
2022-09-27T05:52:38.943Z,18.8
2022-09-27T05:57:40.891Z,15.5
2022-09-27T06:02:43.722Z,12.2
2022-09-27T06:07:46.123Z,16.9
2022-09-27T06:12:46.639Z,11.3
2022-09-27T06:17:48.897Z,12.3
2022-09-27T06:22:50.831Z,13.2
2022-09-27T06:27:52.718Z,14.1
2022-09-27T06:32:55.271Z,18
2022-09-27T06:37:57.391Z,15.5
2022-09-27T06:42:59.427Z,14.8
2022-09-27T06:48:01.434Z,14.5
2022-09-27T06:53:03.296Z,13.3
2022-09-27T06:58:05.174Z,12.6
2022-09-27T07:03:07.571Z,11.9
2022-09-27T07:08:09.555Z,11.5
2022-09-27T07:13:11.572Z,12.2
2022-09-27T07:18:13.467Z,12.5
2022-09-27T07:23:15.359Z,13.1
2022-09-27T07:28:22.631Z,12.9
2022-09-27T07:33:24.786Z,12.7
2022-09-27T07:38:26.689Z,12
2022-09-27T07:43:29.010Z,12.3
2022-09-27T07:48:30.916Z,12.4
2022-09-27T07:53:33.176Z,12.2
2022-09-27T07:58:35.284Z,12.5
2022-09-27T08:03:37.277Z,12.8
2022-09-27T08:08:39.344Z,11.9
2022-09-27T08:13:41.287Z,12.3
2022-09-27T08:18:43.202Z,10.1
2022-09-27T08:23:45.276Z,12.7
2022-09-27T08:28:45.633Z,7.5
2022-09-27T08:33:47.593Z,6.9
2022-09-27T08:38:49.956Z,7.4
2022-09-27T08:43:52.199Z,7.7
2022-09-27T08:48:54.137Z,8.2
2022-09-27T08:53:56.054Z,7.6
2022-09-27T08:58:58.188Z,8.1
2022-09-27T09:04:00.605Z,7.6
2022-09-27T09:09:03.646Z,7.9
2022-09-27T09:14:08.258Z,9
2022-09-27T09:19:15.327Z,9
2022-09-27T09:24:17.839Z,8.8
2022-09-27T09:29:20.014Z,8.5
2022-09-27T09:34:22.455Z,7.7
2022-09-27T09:39:24.745Z,7.1
2022-09-27T09:44:25.831Z,7.2
2022-09-27T09:49:28.226Z,7.3
2022-09-27T09:54:30.223Z,7.3
2022-09-27T09:59:32.365Z,7.2
2022-09-27T10:04:35.063Z,7.2
2022-09-27T10:09:37.499Z,7
2022-09-27T10:14:39.658Z,8
2022-09-27T10:19:41.698Z,8
2022-09-27T10:24:44.175Z,7.5
2022-09-27T10:29:46.298Z,7.4
2022-09-27T10:34:48.422Z,7.2
2022-09-27T10:39:50.802Z,7.5
2022-09-27T10:44:52.892Z,8.2
2022-09-27T10:49:55.312Z,8.3
2022-09-27T10:54:57.420Z,7.6
2022-09-27T10:59:59.313Z,6.6
2022-09-27T11:05:02.218Z,5.8
2022-09-27T11:10:04.593Z,6.1
2022-09-27T11:15:06.679Z,5.5
2022-09-27T11:20:08.602Z,5.3
2022-09-27T11:25:10.806Z,4.4
2022-09-27T11:30:12.914Z,3.8
2022-09-27T11:35:14.972Z,3.5
2022-09-27T11:40:17.214Z,3.5
2022-09-27T11:45:56.803Z,3.5
2022-09-27T11:50:28.543Z,3.7
2022-09-27T11:55:31.364Z,3.3
2022-09-27T12:00:33.495Z,3.2
2022-09-27T12:05:35.901Z,3.1
2022-09-27T12:10:38.055Z,3.5
2022-09-27T12:15:40.351Z,3.7
2022-09-27T12:20:42.604Z,4.1
2022-09-27T12:25:44.569Z,4.6
2022-09-27T12:30:46.609Z,4.7
2022-09-27T12:35:48.483Z,5
2022-09-27T12:40:50.724Z,4.8
2022-09-27T12:45:53.028Z,4.4
2022-09-27T12:50:54.994Z,5
2022-09-27T12:55:57.154Z,4.9
2022-09-27T13:00:59.771Z,4.2
2022-09-27T13:06:02.080Z,4.7
2022-09-27T13:11:04.150Z,5
2022-09-27T13:16:06.208Z,4.9
2022-09-27T13:21:08.332Z,5.8
2022-09-27T13:26:10.659Z,5.6
2022-09-27T13:31:17.052Z,4.9
2022-09-27T13:36:19.319Z,4.3
2022-09-27T13:41:21.531Z,4.2
2022-09-27T13:46:23.706Z,4
2022-09-27T13:51:25.808Z,4.1
2022-09-27T13:56:28.617Z,4.2
2022-09-27T14:01:33.045Z,4.2
2022-09-27T14:06:35.472Z,4.1
2022-09-27T14:11:37.619Z,5.2
2022-09-27T14:16:39.888Z,4.5
2022-09-27T14:21:42.024Z,4.6
2022-09-27T14:26:44.210Z,4.7
2022-09-27T14:31:46.808Z,7.2
2022-09-27T14:36:47.858Z,4.7
2022-09-27T14:41:49.992Z,5.3
2022-09-27T14:46:51.955Z,5.5
2022-09-27T14:51:53.985Z,5.1
2022-09-27T14:56:56.503Z,4.4
2022-09-27T15:01:58.656Z,4.7
2022-09-27T15:07:01.112Z,6
2022-09-27T15:12:03.499Z,4.9
2022-09-27T15:17:05.747Z,5.3
2022-09-27T15:22:07.833Z,5.2
2022-09-27T15:27:09.806Z,4.6
2022-09-27T15:32:11.740Z,5.2
2022-09-27T15:37:13.655Z,5.2
2022-09-27T15:42:15.613Z,4.8
2022-09-27T15:47:17.632Z,4.9
2022-09-27T15:52:19.527Z,5.3
2022-09-27T15:57:21.587Z,5.4
2022-09-27T16:02:23.629Z,1.8
2022-09-27T16:07:25.952Z,2.3
2022-09-27T16:12:28.072Z,2.2
2022-09-27T16:17:30.015Z,2.2
2022-09-27T16:22:32.008Z,2.1
2022-09-27T16:27:33.926Z,3.4
2022-09-27T16:32:35.825Z,1.9
2022-09-27T16:37:37.877Z,1.4
2022-09-27T16:42:39.838Z,1.3
2022-09-27T16:47:41.792Z,1.7
2022-09-27T16:52:43.734Z,1.6
2022-09-27T16:57:45.654Z,1.6
2022-09-27T17:02:48.399Z,2
2022-09-27T17:07:53.295Z,2
2022-09-27T17:12:55.247Z,2.5
2022-09-27T17:17:57.167Z,2.7
2022-09-27T17:22:59.524Z,3.2
2022-09-27T17:28:01.550Z,3.2
2022-09-27T17:33:04.080Z,3.8
2022-09-27T17:38:06.008Z,3.7
2022-09-27T17:43:07.947Z,3.5
2022-09-27T17:48:14.440Z,3.1
2022-09-27T17:53:17.660Z,5.5
2022-09-27T17:58:20.049Z,3.7
2022-09-27T18:03:22.168Z,2.2
2022-09-27T18:08:24.051Z,1.8
2022-09-27T18:13:25.972Z,1.6
2022-09-27T18:18:27.916Z,1.7
2022-09-27T18:23:29.875Z,1.8
2022-09-27T18:28:31.801Z,2.1
2022-09-27T18:33:33.672Z,1.9
2022-09-27T18:38:35.783Z,3.3
2022-09-27T18:43:39.815Z,3.2
2022-09-27T18:48:42.691Z,2.7
2022-09-27T18:53:44.639Z,1.7
2022-09-27T18:58:46.680Z,1.5
2022-09-27T19:03:48.596Z,1.7
2022-09-27T19:08:50.569Z,1.6
2022-09-27T19:13:52.697Z,1.9
2022-09-27T19:18:54.599Z,2.2
2022-09-27T19:23:56.660Z,2.2
2022-09-27T19:28:58.627Z,2.3
2022-09-27T19:34:01.659Z,2.4
2022-09-27T19:39:03.864Z,2.1
2022-09-27T19:44:06.112Z,7.7
2022-09-27T19:49:06.613Z,2
2022-09-27T19:54:08.496Z,2
2022-09-27T19:59:10.397Z,2.1
2022-09-27T20:04:12.370Z,2.4
2022-09-27T20:09:14.539Z,2.1
2022-09-27T20:14:16.918Z,2.1
2022-09-27T20:19:18.920Z,2.1
2022-09-27T20:24:20.912Z,2.2
2022-09-27T20:29:22.887Z,2.1
2022-09-27T20:34:25.153Z,2.4
2022-09-27T20:39:27.142Z,2.2
2022-09-27T20:44:29.180Z,2.2
2022-09-27T20:49:31.482Z,3.2
2022-09-27T20:54:31.930Z,2.3
2022-09-27T20:59:34.014Z,2.4
2022-09-27T21:04:35.859Z,2.3
2022-09-27T21:09:37.911Z,2.5
2022-09-27T21:14:40.161Z,2.8
2022-09-27T21:19:40.991Z,2.8
2022-09-27T21:24:42.861Z,2.6
2022-09-27T21:29:44.891Z,3.1
2022-09-27T21:34:47.229Z,2.9
2022-09-27T21:39:49.179Z,3.2
2022-09-27T21:44:51.114Z,3.6
2022-09-27T21:49:53.274Z,4.3
2022-09-27T21:54:55.188Z,4.3
2022-09-27T21:59:57.102Z,4.2
2022-09-27T22:04:59.065Z,4.6
2022-09-27T22:10:00.954Z,4.7
2022-09-27T22:15:03.146Z,5
2022-09-27T22:20:05.303Z,5.2
2022-09-27T22:25:07.206Z,6.4
2022-09-27T22:30:09.318Z,4.9
2022-09-27T22:35:11.346Z,4.9
2022-09-27T22:40:13.241Z,4.7
2022-09-27T22:45:15.467Z,4.7
2022-09-27T22:50:17.856Z,4.7
2022-09-27T22:55:20.046Z,4.6
2022-09-27T23:00:22.368Z,4.6
2022-09-27T23:05:23.059Z,4.4
2022-09-27T23:10:24.988Z,4.1
2022-09-27T23:15:26.940Z,3.8
2022-09-27T23:20:28.913Z,3.5
2022-09-27T23:25:31.079Z,3.4
2022-09-27T23:30:33.208Z,3.3
2022-09-27T23:35:35.368Z,3.2
2022-09-27T23:40:37.399Z,3.2
2022-09-27T23:45:39.650Z,3.1
2022-09-27T23:50:41.779Z,3.1
2022-09-27T23:55:43.717Z,3.3
